Time;durP1;ratioP1;P1;durP2;ratioP2;P2;SDS_P1;SDS_P2;PMS_P1;PMS_P2;Temp;Humidity;BMP_temperature;BMP_pressure;BME280_temperature;BME280_humidity;BME280_pressure;Samples;Min_cycle;Max_cycle;Signal;HPM_P1;HPM_P2
2022/04/18 00:00:36;;;;;;;20.75;12.50;;;12.50;99.90;;;;;;5000713;28;20394;-78
2022/04/18 00:03:03;;;;;;;19.15;12.85;;;12.40;99.90;;;;;;5002057;28;20034;-77
2022/04/18 00:05:33;;;;;;;14.25;10.70;;;12.40;99.90;;;;;;5001697;28;20080;-80
2022/04/18 00:08:01;;;;;;;22.40;14.87;;;12.40;99.90;;;;;;5019735;28;20017;-77
2022/04/18 00:10:26;;;;;;;19.63;13.90;;;12.30;99.90;;;;;;5001843;28;20161;-77
2022/04/18 00:12:52;;;;;;;18.58;13.15;;;12.30;99.90;;;;;;5002042;28;20053;-77
2022/04/18 00:15:18;;;;;;;19.38;14.70;;;12.30;99.90;;;;;;5001915;28;20493;-78
2022/04/18 00:17:44;;;;;;;20.02;13.50;;;12.20;99.90;;;;;;5001754;28;20026;-78
2022/04/18 00:20:10;;;;;;;17.67;11.75;;;12.20;99.90;;;;;;5019064;28;20109;-77
2022/04/18 00:22:36;;;;;;;19.35;12.18;;;12.10;99.90;;;;;;5001647;28;20120;-77
2022/04/18 00:25:03;;;;;;;20.88;15.52;;;12.10;99.90;;;;;;5019160;28;20478;-77
2022/04/18 00:27:28;;;;;;;22.83;16.17;;;12.00;99.90;;;;;;5019326;28;20466;-78
2022/04/18 00:29:54;;;;;;;26.90;15.98;;;12.00;99.90;;;;;;5019015;28;20053;-77
2022/04/18 00:32:20;;;;;;;23.08;15.50;;;11.90;99.90;;;;;;5019064;28;20037;-77
2022/04/18 00:34:46;;;;;;;28.52;16.23;;;11.90;99.90;;;;;;5018804;28;20022;-77
2022/04/18 00:37:12;;;;;;;19.30;16.08;;;11.90;99.90;;;;;;5019055;28;20029;-78
2022/04/18 00:39:38;;;;;;;23.95;15.65;;;11.90;99.90;;;;;;5018864;28;20517;-77
2022/04/18 00:42:04;;;;;;;22.48;15.85;;;11.80;99.90;;;;;;5019020;28;20401;-78
2022/04/18 00:44:30;;;;;;;25.63;17.20;;;11.80;99.90;;;;;;5018796;28;20026;-78
2022/04/18 00:46:55;;;;;;;19.35;12.18;;;11.80;99.90;;;;;;5018601;28;20022;-77
2022/04/18 00:49:21;;;;;;;22.70;17.40;;;11.80;99.90;;;;;;5018635;28;20029;-76
2022/04/18 00:51:48;;;;;;;25.92;18.52;;;11.70;99.90;;;;;;5001056;28;20034;-77
2022/04/18 00:54:14;;;;;;;25.88;18.33;;;11.70;99.90;;;;;;5004074;28;20054;-78
2022/04/18 00:56:40;;;;;;;23.52;18.55;;;11.70;99.90;;;;;;4999106;28;20479;-77
2022/04/18 00:59:07;;;;;;;23.83;18.05;;;11.70;99.90;;;;;;4981387;28;20027;-77
2022/04/18 01:01:33;;;;;;;24.77;17.20;;;11.70;99.90;;;;;;4989767;28;20026;-78
2022/04/18 01:03:59;;;;;;;28.38;17.25;;;11.70;99.90;;;;;;5000792;28;20014;-78
2022/04/18 01:06:24;;;;;;;24.75;18.60;;;11.70;99.90;;;;;;5000761;28;20030;-77
2022/04/18 01:08:50;;;;;;;25.05;15.65;;;11.70;99.90;;;;;;5000924;28;20014;-77
2022/04/18 01:11:16;;;;;;;21.50;17.48;;;11.70;99.90;;;;;;4988566;28;20057;-77
2022/04/18 01:13:43;;;;;;;27.73;17.25;;;11.70;99.90;;;;;;4998606;28;20030;-77
2022/04/18 01:16:09;;;;;;;28.95;19.00;;;11.70;99.90;;;;;;5007313;28;20057;-77
2022/04/18 01:18:35;;;;;;;28.90;19.17;;;11.60;99.90;;;;;;5000076;28;20449;-77
2022/04/18 01:21:08;;;;;;;21.90;16.02;;;11.60;99.90;;;;;;5018258;28;20026;-76
2022/04/18 01:23:34;;;;;;;25.35;17.67;;;11.60;99.90;;;;;;5000310;28;20049;-78
2022/04/18 01:29:03;;;;;;;24.30;15.38;;;11.60;99.90;;;;;;5017960;28;20144;-77
2022/04/18 01:31:31;;;;;;;26.17;17.60;;;11.60;99.90;;;;;;5017993;28;20029;-77
2022/04/18 01:33:58;;;;;;;25.17;17.77;;;11.60;99.90;;;;;;5017954;28;20470;-75
2022/04/18 01:36:25;;;;;;;27.30;18.85;;;11.50;99.90;;;;;;5017949;28;20026;-77
2022/04/18 01:38:51;;;;;;;27.33;19.42;;;11.50;99.90;;;;;;5018019;28;20026;-77
2022/04/18 01:41:17;;;;;;;24.38;19.27;;;11.50;99.90;;;;;;5017767;28;20025;-77
2022/04/18 01:43:43;;;;;;;31.73;21.10;;;11.50;99.90;;;;;;5018042;28;20036;-79
2022/04/18 01:46:09;;;;;;;26.33;20.02;;;11.50;99.90;;;;;;5017648;28;20018;-76
2022/04/18 01:48:35;;;;;;;25.90;18.70;;;11.40;99.90;;;;;;5000096;28;20025;-76
2022/04/18 01:51:01;;;;;;;27.90;18.08;;;11.40;99.90;;;;;;5017624;28;20030;-77
2022/04/18 01:53:30;;;;;;;23.60;19.08;;;11.40;99.90;;;;;;5000983;28;20474;-77
2022/04/18 01:55:56;;;;;;;23.23;15.68;;;11.50;99.90;;;;;;4997925;28;20033;-77
2022/04/18 01:58:22;;;;;;;29.92;19.77;;;11.40;99.90;;;;;;4997732;28;20026;-76
2022/04/18 02:00:47;;;;;;;26.15;19.50;;;11.40;99.90;;;;;;4999868;28;20084;-77
2022/04/18 02:03:13;;;;;;;23.20;19.45;;;11.40;99.90;;;;;;5017734;28;20097;-77
2022/04/18 02:05:43;;;;;;;25.70;20.83;;;11.40;99.90;;;;;;5015907;28;20058;-77
2022/04/18 02:08:09;;;;;;;30.73;19.00;;;11.40;99.90;;;;;;5008489;28;20015;-77
2022/04/18 02:10:35;;;;;;;26.80;19.67;;;11.40;99.90;;;;;;5013722;28;20290;-81
2022/04/18 02:13:01;;;;;;;28.00;20.05;;;11.40;99.90;;;;;;5018116;28;20053;-76
2022/04/18 02:15:26;;;;;;;23.33;19.95;;;11.40;99.90;;;;;;5017534;28;20068;-79
2022/04/18 02:17:52;;;;;;;29.90;19.10;;;11.30;99.90;;;;;;5017435;28;20026;-77
2022/04/18 02:20:18;;;;;;;29.60;17.90;;;11.30;99.90;;;;;;5015857;28;20026;-78
2022/04/18 02:22:44;;;;;;;26.70;18.60;;;11.30;99.90;;;;;;5017513;28;20081;-78
2022/04/18 02:25:10;;;;;;;25.77;19.23;;;11.30;99.90;;;;;;5017371;28;20022;-78
2022/04/18 02:27:36;;;;;;;28.33;19.20;;;11.30;99.90;;;;;;5017490;28;20030;-77
2022/04/18 02:30:03;;;;;;;25.17;19.17;;;11.30;99.90;;;;;;5016021;28;20101;-76
2022/04/18 02:32:47;;;;;;;27.92;19.88;;;11.30;99.90;;;;;;5016078;28;20121;-77
2022/04/18 02:35:17;;;;;;;23.48;17.75;;;11.30;99.90;;;;;;5015868;28;20029;-78
2022/04/18 02:37:43;;;;;;;25.13;18.67;;;11.30;99.90;;;;;;5016080;28;20037;-77
2022/04/18 02:40:10;;;;;;;25.95;16.40;;;11.30;99.90;;;;;;5017182;28;20026;-77
2022/04/18 02:42:36;;;;;;;21.92;17.65;;;11.20;99.90;;;;;;5015778;28;20053;-77
2022/04/18 02:45:02;;;;;;;26.20;19.05;;;11.30;99.90;;;;;;5017315;28;20497;-76
2022/04/18 02:47:28;;;;;;;25.10;19.33;;;11.30;99.90;;;;;;5017154;28;20022;-77
2022/04/18 02:49:54;;;;;;;25.50;18.85;;;11.20;99.90;;;;;;5016710;28;20045;-77
2022/04/18 02:52:20;;;;;;;26.13;18.73;;;11.20;99.90;;;;;;5015515;28;20046;-77
2022/04/18 02:54:46;;;;;;;29.40;17.27;;;11.20;99.90;;;;;;4997721;28;20030;-77
2022/04/18 02:57:12;;;;;;;27.48;18.83;;;11.20;99.90;;;;;;4997722;28;20026;-78
2022/04/18 02:59:39;;;;;;;24.13;16.15;;;11.20;99.90;;;;;;4979777;28;20077;-77
2022/04/18 03:02:06;;;;;;;29.40;19.08;;;11.20;99.90;;;;;;5010048;28;20045;-77
2022/04/18 03:04:32;;;;;;;29.35;16.63;;;11.20;99.90;;;;;;5015501;28;20049;-77
2022/04/18 03:06:58;;;;;;;26.50;17.48;;;11.20;99.90;;;;;;5016927;28;20054;-78
2022/04/18 03:09:24;;;;;;;23.90;18.05;;;11.30;99.90;;;;;;5016997;28;20041;-77
2022/04/18 03:11:50;;;;;;;24.77;17.52;;;11.30;99.90;;;;;;5020569;28;20164;-77
2022/04/18 03:14:16;;;;;;;21.73;17.05;;;11.30;99.90;;;;;;5020634;28;20061;-76
2022/04/18 03:16:41;;;;;;;25.70;17.73;;;11.30;99.90;;;;;;5019229;28;20022;-76
2022/04/18 03:19:07;;;;;;;27.15;16.77;;;11.30;99.90;;;;;;5020239;28;20026;-77
2022/04/18 03:21:33;;;;;;;23.67;18.02;;;11.30;99.90;;;;;;5020183;28;20498;-77
2022/04/18 03:23:59;;;;;;;25.38;17.98;;;11.30;99.90;;;;;;5014672;28;20069;-78
2022/04/18 03:26:25;;;;;;;24.58;17.70;;;11.30;99.90;;;;;;5000829;28;20050;-76
2022/04/18 03:28:51;;;;;;;28.30;18.48;;;11.30;99.90;;;;;;5000836;28;20049;-77
2022/04/18 03:31:16;;;;;;;25.83;18.48;;;11.30;99.90;;;;;;5000771;28;20030;-77
2022/04/18 03:33:42;;;;;;;19.58;14.43;;;11.30;99.90;;;;;;5000260;28;20101;-77
2022/04/18 03:41:37;;;;;;;20.40;16.20;;;11.40;99.90;;;;;;4999319;28;20113;-77
2022/04/18 03:44:03;;;;;;;21.45;16.83;;;11.40;99.90;;;;;;4999150;28;20053;-78
2022/04/18 03:46:28;;;;;;;20.48;15.90;;;11.40;99.90;;;;;;5000311;28;20033;-78
2022/04/18 03:48:54;;;;;;;19.80;15.60;;;11.40;99.90;;;;;;5000241;28;20053;-78
2022/04/18 03:51:20;;;;;;;22.63;15.82;;;11.40;99.90;;;;;;5000083;28;20516;-77
2022/04/18 03:53:46;;;;;;;22.90;15.90;;;11.50;99.90;;;;;;5000059;28;20045;-77
2022/04/18 03:56:12;;;;;;;24.40;16.33;;;11.40;99.90;;;;;;5000118;28;20034;-77
2022/04/18 03:58:37;;;;;;;19.27;15.57;;;11.50;99.90;;;;;;5000164;28;20054;-79
2022/04/18 04:01:03;;;;;;;25.75;15.63;;;11.50;99.90;;;;;;5004358;28;20026;-79
2022/04/18 04:03:29;;;;;;;21.92;15.23;;;11.50;99.90;;;;;;5019623;28;20437;-77
2022/04/18 04:05:55;;;;;;;21.42;16.02;;;11.50;99.90;;;;;;5019468;28;20025;-78
2022/04/18 04:08:24;;;;;;;21.52;15.80;;;11.50;99.90;;;;;;4978510;28;20018;-78
2022/04/18 04:10:50;;;;;;;24.98;16.15;;;11.50;99.90;;;;;;4980632;28;20036;-77
2022/04/18 04:13:16;;;;;;;23.48;15.77;;;11.50;99.90;;;;;;4998133;28;20014;-77
2022/04/18 04:15:42;;;;;;;28.13;15.63;;;11.50;99.90;;;;;;4999097;28;20076;-77
2022/04/18 04:18:08;;;;;;;26.05;16.02;;;11.50;99.90;;;;;;4981525;28;20106;-77
2022/04/18 04:20:34;;;;;;;24.45;16.50;;;11.50;99.90;;;;;;4981579;28;20049;-79
2022/04/18 04:23:00;;;;;;;22.38;16.77;;;11.50;99.90;;;;;;4980886;28;20442;-77
2022/04/18 04:25:26;;;;;;;26.35;14.98;;;11.50;99.90;;;;;;4998814;28;20027;-76
2022/04/18 04:27:52;;;;;;;16.90;15.10;;;11.50;99.90;;;;;;4999007;28;20023;-78
2022/04/18 04:30:18;;;;;;;20.60;13.90;;;11.50;99.90;;;;;;4981172;28;20026;-77
2022/04/18 04:32:44;;;;;;;21.90;15.70;;;11.50;99.90;;;;;;4998971;28;20031;-79
2022/04/18 04:35:10;;;;;;;23.42;14.75;;;11.50;99.90;;;;;;4969335;28;20118;-78
2022/04/18 04:37:36;;;;;;;22.35;15.88;;;11.50;99.90;;;;;;4965235;28;20026;-78
2022/04/18 04:40:04;;;;;;;19.48;14.27;;;11.50;99.90;;;;;;4984542;28;20483;-78
2022/04/18 04:42:30;;;;;;;24.60;15.02;;;11.50;99.90;;;;;;4983771;28;20487;-78
2022/04/18 04:44:57;;;;;;;25.48;15.00;;;11.50;99.90;;;;;;4986701;28;20448;-79
2022/04/18 04:47:23;;;;;;;21.23;15.55;;;11.50;99.90;;;;;;4966964;28;20517;-78
2022/04/18 04:49:49;;;;;;;21.25;14.45;;;11.50;99.90;;;;;;4984667;28;20062;-77
2022/04/18 04:52:15;;;;;;;19.35;13.93;;;11.50;99.90;;;;;;4970391;28;20047;-77
2022/04/18 04:54:41;;;;;;;22.58;15.30;;;11.50;99.90;;;;;;4970845;28;20785;-76
2022/04/18 04:57:07;;;;;;;19.95;14.63;;;11.50;99.90;;;;;;4982421;28;20031;-78
2022/04/18 04:59:33;;;;;;;24.40;15.10;;;11.50;99.90;;;;;;4983685;28;20427;-77
2022/04/18 05:01:59;;;;;;;19.33;13.75;;;11.50;99.90;;;;;;4985472;28;20502;-76
2022/04/18 05:04:27;;;;;;;20.17;14.77;;;11.50;99.90;;;;;;4983894;28;20034;-78
2022/04/18 05:06:53;;;;;;;20.35;15.15;;;11.50;99.90;;;;;;4982411;28;20045;-77
2022/04/18 05:09:19;;;;;;;20.33;14.88;;;11.50;99.90;;;;;;4983341;28;20018;-79
2022/04/18 05:11:46;;;;;;;19.30;13.93;;;11.50;99.90;;;;;;4967521;28;20030;-78
2022/04/18 05:14:14;;;;;;;23.75;14.20;;;11.50;99.90;;;;;;4982707;28;20027;-78
2022/04/18 05:16:40;;;;;;;20.27;14.35;;;11.50;99.90;;;;;;4983638;28;20030;-78
2022/04/18 05:19:06;;;;;;;20.08;14.07;;;11.50;99.90;;;;;;4980883;28;20027;-79
2022/04/18 05:21:32;;;;;;;20.05;14.82;;;11.50;99.90;;;;;;4986747;28;20038;-77
2022/04/18 05:23:58;;;;;;;21.52;14.85;;;11.50;99.90;;;;;;4986779;28;20019;-78
2022/04/18 05:26:24;;;;;;;21.23;14.57;;;11.50;99.90;;;;;;4983971;28;20023;-78
2022/04/18 05:28:50;;;;;;;17.30;13.38;;;11.50;99.90;;;;;;4969570;28;20252;-79
2022/04/18 05:31:17;;;;;;;23.35;13.98;;;11.50;99.90;;;;;;4997895;28;20398;-78
2022/04/18 05:33:43;;;;;;;19.92;14.25;;;11.50;99.90;;;;;;4980606;28;20108;-78
2022/04/18 05:36:09;;;;;;;21.27;13.93;;;11.50;99.90;;;;;;4998551;28;20030;-79
2022/04/18 05:38:35;;;;;;;17.42;13.65;;;11.50;99.90;;;;;;4998296;28;20084;-80
2022/04/18 05:41:01;;;;;;;17.88;13.35;;;11.50;99.90;;;;;;4980372;28;20034;-82
2022/04/18 05:43:28;;;;;;;17.50;13.25;;;11.50;99.90;;;;;;4983528;28;20069;-86
2022/04/18 05:45:54;;;;;;;18.55;12.90;;;11.50;99.90;;;;;;5001513;28;20030;-84
2022/04/18 05:48:20;;;;;;;16.42;12.05;;;11.60;99.90;;;;;;4983646;28;20545;-85
2022/04/18 05:50:47;;;;;;;15.57;12.30;;;11.60;99.90;;;;;;5001814;28;20821;-83
2022/04/18 05:53:14;;;;;;;19.20;14.95;;;11.60;99.90;;;;;;4999615;28;20065;-84
2022/04/18 05:55:40;;;;;;;18.08;13.45;;;11.60;99.90;;;;;;5001429;28;20026;-84
2022/04/18 05:58:06;;;;;;;21.48;13.30;;;11.70;99.90;;;;;;5001831;28;20023;-81
2022/04/18 06:00:34;;;;;;;18.77;12.55;;;11.70;99.90;;;;;;5005861;28;20101;-82
2022/04/18 06:03:01;;;;;;;14.20;12.25;;;11.80;99.90;;;;;;5014948;28;20035;-84
2022/04/18 06:05:27;;;;;;;19.48;12.20;;;11.80;99.90;;;;;;5018229;28;20063;-83
2022/04/18 06:07:53;;;;;;;18.90;12.52;;;11.90;99.90;;;;;;5003931;28;20032;-84
2022/04/18 06:10:19;;;;;;;23.13;12.63;;;12.00;99.90;;;;;;5003664;28;20026;-83
2022/04/18 06:12:45;;;;;;;15.98;11.32;;;12.00;99.90;;;;;;5004668;28;20026;-84
2022/04/18 06:15:11;;;;;;;19.95;11.73;;;12.10;99.90;;;;;;5007549;28;20026;-83
2022/04/18 06:17:37;;;;;;;19.33;12.00;;;12.20;99.90;;;;;;4985598;28;20433;-83
2022/04/18 06:20:03;;;;;;;12.07;10.23;;;12.20;99.90;;;;;;4988494;28;20027;-83
2022/04/18 06:22:29;;;;;;;17.55;10.98;;;12.30;99.90;;;;;;4984588;28;20533;-83
2022/04/18 06:24:55;;;;;;;14.35;9.63;;;12.40;99.90;;;;;;4986524;28;20019;-83
2022/04/18 06:27:21;;;;;;;19.40;11.30;;;12.40;99.90;;;;;;5001684;28;20525;-84
2022/04/18 06:29:47;;;;;;;11.38;9.38;;;12.40;99.90;;;;;;4988534;28;20023;-82
2022/04/18 06:32:13;;;;;;;19.60;10.15;;;12.50;99.90;;;;;;5000564;28;20097;-82
2022/04/18 06:34:39;;;;;;;14.77;10.57;;;12.50;99.90;;;;;;5001053;28;20053;-83
2022/04/18 06:37:05;;;;;;;15.38;9.93;;;12.60;99.90;;;;;;5007294;28;20044;-80
2022/04/18 06:39:31;;;;;;;19.95;9.82;;;12.60;99.90;;;;;;5000585;28;20081;-81
2022/04/18 06:41:57;;;;;;;13.73;10.98;;;12.60;99.90;;;;;;4997698;28;20057;-82
2022/04/18 06:44:24;;;;;;;21.27;10.38;;;12.70;99.90;;;;;;4999011;28;20014;-82
2022/04/18 06:46:50;;;;;;;16.73;9.90;;;12.70;99.90;;;;;;4986493;28;20069;-81
2022/04/18 06:49:16;;;;;;;21.52;10.48;;;12.70;99.90;;;;;;5000356;28;20027;-80
2022/04/18 06:51:42;;;;;;;14.00;8.98;;;12.70;99.90;;;;;;5002187;28;20029;-80
2022/04/18 06:54:07;;;;;;;14.50;9.95;;;12.70;99.90;;;;;;4987943;28;20159;-81
2022/04/18 06:59:18;;;;;;;12.48;9.57;;;12.90;99.90;;;;;;5005053;28;20033;-81
2022/04/18 07:01:44;;;;;;;11.80;9.73;;;12.90;99.90;;;;;;5014152;28;20405;-80
2022/04/18 07:04:11;;;;;;;11.73;9.13;;;12.90;99.90;;;;;;5024884;28;20032;-79
2022/04/18 07:06:37;;;;;;;13.13;9.40;;;13.00;99.90;;;;;;5022178;28;20026;-83
2022/04/18 07:09:03;;;;;;;14.18;9.20;;;13.00;99.90;;;;;;5022459;28;20481;-82
2022/04/18 07:11:29;;;;;;;13.63;8.70;;;13.00;99.90;;;;;;5021978;28;20030;-81
2022/04/18 07:13:55;;;;;;;12.57;9.52;;;13.00;99.90;;;;;;5020622;28;20030;-80
2022/04/18 07:16:21;;;;;;;12.80;10.05;;;13.10;99.90;;;;;;5004265;28;20030;-80
2022/04/18 07:18:47;;;;;;;16.15;10.45;;;13.10;99.90;;;;;;5005593;28;20030;-80
2022/04/18 07:21:13;;;;;;;17.73;10.30;;;13.20;99.90;;;;;;5004674;28;20077;-82
2022/04/18 07:23:38;;;;;;;20.13;9.90;;;13.40;99.90;;;;;;5004806;28;20026;-82
2022/04/18 07:26:05;;;;;;;15.27;8.57;;;13.50;99.90;;;;;;5011880;28;20037;-79
2022/04/18 07:28:30;;;;;;;14.75;7.53;;;13.50;99.90;;;;;;5020394;28;20068;-82
2022/04/18 07:30:56;;;;;;;14.32;9.27;;;13.40;99.90;;;;;;5022880;28;20053;-82
2022/04/18 07:33:22;;;;;;;12.38;9.57;;;13.50;99.90;;;;;;5016185;28;20487;-81
2022/04/18 07:35:48;;;;;;;17.27;10.68;;;13.50;99.90;;;;;;5003702;28;20030;-81
2022/04/18 07:41:04;;;;;;;14.13;9.57;;;13.50;99.90;;;;;;4999891;28;20049;-83
2022/04/18 07:43:32;;;;;;;13.80;9.18;;;13.30;99.90;;;;;;5001657;28;20019;-82
2022/04/18 07:45:58;;;;;;;18.50;11.40;;;13.30;99.90;;;;;;5001159;28;20482;-80
2022/04/18 07:48:23;;;;;;;14.20;10.15;;;13.30;99.90;;;;;;5000861;28;20057;-82
2022/04/18 07:53:33;;;;;;;17.83;10.57;;;13.30;99.90;;;;;;5012809;28;20073;-80
2022/04/18 07:55:59;;;;;;;16.65;10.35;;;13.30;99.90;;;;;;5001133;28;20404;-81
2022/04/18 07:58:25;;;;;;;14.65;10.27;;;13.20;99.90;;;;;;5002032;28;20022;-81
2022/04/18 08:00:51;;;;;;;13.27;10.52;;;13.10;99.90;;;;;;4990422;28;20037;-82
2022/04/18 08:03:17;;;;;;;11.63;9.98;;;13.10;99.90;;;;;;5022577;28;20037;-80
2022/04/18 08:05:43;;;;;;;14.18;9.35;;;13.10;99.90;;;;;;4997237;28;20037;-81
2022/04/18 08:08:09;;;;;;;12.10;9.30;;;13.10;99.90;;;;;;4999934;28;20022;-81
2022/04/18 08:10:38;;;;;;;14.35;9.60;;;13.20;99.90;;;;;;5000239;28;20021;-80
2022/04/18 08:13:04;;;;;;;11.77;8.90;;;13.30;99.90;;;;;;4984810;28;20557;-81
2022/04/18 08:15:32;;;;;;;15.85;9.57;;;13.30;99.90;;;;;;5000916;28;20073;-81
2022/04/18 08:17:58;;;;;;;13.20;9.55;;;13.40;99.90;;;;;;4998377;28;20061;-80
2022/04/18 08:20:24;;;;;;;12.40;8.77;;;13.50;99.90;;;;;;5016438;28;20026;-81
2022/04/18 08:22:50;;;;;;;14.73;9.07;;;13.50;99.90;;;;;;5019389;28;20060;-81
2022/04/18 08:25:16;;;;;;;12.50;8.65;;;13.50;99.90;;;;;;5008413;28;20026;-81
2022/04/18 08:27:42;;;;;;;13.68;9.88;;;13.50;99.90;;;;;;5002510;28;20512;-80
2022/04/18 08:30:08;;;;;;;12.75;9.48;;;13.50;99.90;;;;;;5001781;28;20033;-81
2022/04/18 08:32:40;;;;;;;15.40;9.82;;;13.60;99.90;;;;;;4983112;28;20486;-80
2022/04/18 08:35:08;;;;;;;11.23;8.45;;;13.60;99.90;;;;;;4983764;28;20034;-80
2022/04/18 08:37:34;;;;;;;13.55;8.88;;;13.60;99.90;;;;;;5011640;28;20037;-79
2022/04/18 08:40:06;;;;;;;14.23;9.70;;;13.60;99.90;;;;;;5001520;28;20025;-78
2022/04/18 08:42:39;;;;;;;11.02;9.38;;;13.70;99.90;;;;;;5019208;28;20478;-79
2022/04/18 08:45:08;;;;;;;20.55;9.68;;;13.80;99.90;;;;;;4995429;28;20034;-77
2022/04/18 08:53:08;;;;;;;12.25;9.52;;;13.80;99.90;;;;;;4999893;28;20105;-79
2022/04/18 08:55:34;;;;;;;12.55;9.95;;;13.80;99.90;;;;;;5012093;28;20092;-82
2022/04/18 08:58:00;;;;;;;15.75;9.85;;;13.80;99.90;;;;;;5013995;28;20030;-80
2022/04/18 09:00:27;;;;;;;14.48;9.75;;;13.80;99.90;;;;;;4986140;28;20022;-80
2022/04/18 09:02:54;;;;;;;20.30;10.88;;;14.00;99.90;;;;;;5003441;28;20037;-80
2022/04/18 09:05:20;;;;;;;13.57;9.88;;;14.10;99.90;;;;;;4999343;28;20109;-79
2022/04/18 09:08:08;;;;;;;10.55;8.48;;;14.20;99.90;;;;;;5004499;28;20032;-81
2022/04/18 09:10:35;;;;;;;15.27;9.73;;;14.30;99.90;;;;;;5018653;28;20053;-78
2022/04/18 09:13:08;;;;;;;13.90;10.48;;;14.40;99.90;;;;;;5001355;28;20030;-80
2022/04/18 09:15:37;;;;;;;17.35;10.00;;;14.40;99.90;;;;;;5001347;28;20079;-80
2022/04/18 09:18:17;;;;;;;16.50;10.18;;;14.40;99.90;;;;;;5008095;28;20027;-83
2022/04/18 09:20:57;;;;;;;13.95;9.77;;;14.60;99.90;;;;;;4999027;28;20019;-81
2022/04/18 09:23:32;;;;;;;11.43;8.23;;;14.50;99.90;;;;;;4998394;28;20023;-79
2022/04/18 09:26:04;;;;;;;18.63;9.90;;;14.50;99.90;;;;;;4998843;28;20479;-80
2022/04/18 09:28:35;;;;;;;17.85;10.23;;;14.50;99.90;;;;;;4998326;28;20454;-81
2022/04/18 09:31:07;;;;;;;12.43;9.85;;;14.50;99.90;;;;;;4997625;28;20033;-79
2022/04/18 09:33:44;;;;;;;13.90;11.00;;;14.40;99.90;;;;;;4997773;28;20049;-79
2022/04/18 09:36:18;;;;;;;16.98;10.45;;;14.40;99.90;;;;;;4998714;28;20490;-78
2022/04/18 09:38:55;;;;;;;16.02;10.40;;;14.40;99.90;;;;;;4998740;28;20045;-82
2022/04/18 09:41:26;;;;;;;16.20;11.15;;;14.40;99.90;;;;;;4998926;28;20030;-79
2022/04/18 09:43:53;;;;;;;15.63;10.63;;;14.50;99.90;;;;;;4998161;28;20077;-81
2022/04/18 09:46:20;;;;;;;14.25;10.13;;;14.60;99.90;;;;;;4998154;28;20483;-81
2022/04/18 09:48:49;;;;;;;15.60;11.98;;;14.60;99.90;;;;;;5009265;28;20018;-81
2022/04/18 09:51:29;;;;;;;15.82;10.57;;;14.60;99.90;;;;;;5017565;28;20091;-81
2022/04/18 09:53:58;;;;;;;16.85;10.98;;;14.60;99.90;;;;;;5001674;28;20060;-81
2022/04/18 09:56:26;;;;;;;21.75;11.35;;;14.70;99.90;;;;;;4998140;28;20022;-81
2022/04/18 09:58:53;;;;;;;16.45;10.75;;;14.70;99.90;;;;;;4996832;28;20030;-81
2022/04/18 10:01:19;;;;;;;14.85;11.35;;;14.70;99.90;;;;;;5003622;28;20113;-81
2022/04/18 10:03:48;;;;;;;15.32;10.82;;;14.60;99.90;;;;;;5016176;28;20457;-80
2022/04/18 10:06:14;;;;;;;13.70;9.95;;;14.70;99.90;;;;;;5017419;28;20117;-80
2022/04/18 10:08:40;;;;;;;16.90;10.65;;;14.70;99.90;;;;;;5007361;28;20065;-81
2022/04/18 10:11:11;;;;;;;15.43;10.77;;;14.80;99.90;;;;;;4998046;28;20109;-81
2022/04/18 10:13:38;;;;;;;16.40;9.90;;;14.80;99.90;;;;;;4998289;28;20033;-80
2022/04/18 10:16:05;;;;;;;15.02;11.07;;;15.00;99.90;;;;;;4998277;28;20505;-82
2022/04/18 10:18:37;;;;;;;16.08;10.90;;;15.10;99.90;;;;;;4996556;28;20109;-81
2022/04/18 10:21:17;;;;;;;16.13;11.38;;;15.10;99.90;;;;;;4997136;28;20041;-80
2022/04/18 10:24:20;;;;;;;18.50;11.20;;;15.10;99.90;;;;;;4997878;28;20036;-83
2022/04/18 10:27:04;;;;;;;15.93;11.88;;;15.20;99.90;;;;;;4996659;28;20076;-80
2022/04/18 10:29:39;;;;;;;17.42;11.00;;;15.50;99.90;;;;;;5009611;28;20030;-79
2022/04/18 10:32:08;;;;;;;19.70;11.55;;;15.40;99.90;;;;;;5018304;28;20018;-79
2022/04/18 10:34:35;;;;;;;14.18;10.27;;;15.40;99.90;;;;;;5017519;28;20080;-78
2022/04/18 10:37:02;;;;;;;24.75;12.20;;;15.50;99.90;;;;;;5017660;28;20026;-77
2022/04/18 10:39:37;;;;;;;15.75;11.35;;;15.70;99.90;;;;;;5016585;28;20072;-78
2022/04/18 10:42:22;;;;;;;17.15;12.27;;;15.70;99.90;;;;;;5009693;28;20426;-81
2022/04/18 10:44:59;;;;;;;18.48;11.00;;;15.90;99.90;;;;;;4997750;28;20027;-80
2022/04/18 10:47:25;;;;;;;17.45;10.52;;;15.90;99.90;;;;;;4998127;28;20014;-83
2022/04/18 10:50:20;;;;;;;14.73;11.73;;;16.00;99.90;;;;;;4997580;28;20394;-81
2022/04/18 10:53:04;;;;;;;15.43;10.80;;;16.10;99.90;;;;;;4997853;28;20073;-81
2022/04/18 10:55:30;;;;;;;16.98;11.20;;;16.40;99.90;;;;;;4997653;28;20037;-81
2022/04/18 10:58:35;;;;;;;15.88;10.82;;;16.70;99.90;;;;;;4980471;28;20034;-81
2022/04/18 11:01:05;;;;;;;15.98;9.98;;;17.20;99.90;;;;;;4967871;28;20074;-81
2022/04/18 11:03:46;;;;;;;18.65;11.02;;;17.10;99.90;;;;;;4997798;28;20049;-84
2022/04/18 11:06:18;;;;;;;18.83;11.25;;;17.00;99.90;;;;;;4980354;28;20027;-82
2022/04/18 11:09:10;;;;;;;16.05;11.82;;;17.20;99.90;;;;;;4997175;28;20023;-81
2022/04/18 11:11:36;;;;;;;16.00;9.70;;;16.80;99.90;;;;;;4998048;28;20030;-84
2022/04/18 11:14:12;;;;;;;13.73;10.30;;;16.90;99.90;;;;;;4980603;28;20070;-80
2022/04/18 11:16:44;;;;;;;16.48;10.05;;;16.70;99.90;;;;;;4999878;28;20609;-83
2022/04/18 11:19:17;;;;;;;15.73;10.10;;;16.60;99.90;;;;;;5023344;28;20030;-81
2022/04/18 11:24:40;;;;;;;13.73;9.27;;;16.80;99.90;;;;;;5019145;28;20057;-82
2022/04/18 11:27:11;;;;;;;13.00;9.43;;;16.80;99.90;;;;;;5018011;28;20073;-85
2022/04/18 11:29:39;;;;;;;13.68;10.18;;;16.90;99.90;;;;;;5018346;28;20018;-82
2022/04/18 11:32:07;;;;;;;14.52;8.57;;;16.70;99.90;;;;;;5002694;28;20026;-82
2022/04/18 11:34:34;;;;;;;14.13;9.18;;;16.70;99.90;;;;;;5021985;28;20083;-82
2022/04/18 11:37:03;;;;;;;16.50;9.13;;;16.70;99.90;;;;;;5015870;28;20027;-81
2022/04/18 11:39:43;;;;;;;12.50;9.35;;;16.60;99.90;;;;;;5016452;28;20065;-85
2022/04/18 11:42:13;;;;;;;13.48;7.05;;;16.50;99.90;;;;;;5004446;28;20021;-81
2022/04/18 11:44:40;;;;;;;15.27;9.50;;;16.80;99.90;;;;;;5003834;28;20117;-85
2022/04/18 11:47:10;;;;;;;13.48;8.70;;;16.80;99.90;;;;;;5003268;28;20654;-81
2022/04/18 11:49:41;;;;;;;12.93;8.65;;;16.90;99.90;;;;;;4997575;28;20060;-82
2022/04/18 11:52:35;;;;;;;13.27;8.70;;;17.10;99.90;;;;;;4992680;28;20022;-81
2022/04/18 11:55:14;;;;;;;12.68;8.98;;;17.10;99.90;;;;;;4972743;28;20034;-82
2022/04/18 11:57:42;;;;;;;13.15;8.85;;;17.20;99.90;;;;;;4984719;28;20029;-78
2022/04/18 12:00:13;;;;;;;16.33;8.70;;;17.10;99.90;;;;;;5000329;28;20026;-79
2022/04/18 12:08:13;;;;;;;13.95;7.85;;;17.00;99.90;;;;;;5020786;28;20048;-84
2022/04/18 12:10:42;;;;;;;11.93;8.38;;;17.40;99.90;;;;;;5003635;28;20037;-78
2022/04/18 12:13:10;;;;;;;13.25;9.15;;;17.50;99.90;;;;;;5003653;28;20569;-79
2022/04/18 12:15:36;;;;;;;12.57;8.75;;;17.50;99.90;;;;;;5022326;28;20122;-80
2022/04/18 12:18:14;;;;;;;10.77;8.65;;;17.40;99.90;;;;;;5020983;28;20029;-81
2022/04/18 12:20:51;;;;;;;13.48;8.55;;;17.30;99.90;;;;;;5019272;28;20007;-83
2022/04/18 12:23:23;;;;;;;11.27;9.10;;;17.40;99.90;;;;;;5006084;28;20026;-80
2022/04/18 12:25:52;;;;;;;13.57;7.05;;;17.50;99.90;;;;;;5000983;28;20026;-80
2022/04/18 12:28:37;;;;;;;11.50;8.90;;;17.60;99.90;;;;;;5014040;28;20022;-79
2022/04/18 12:31:10;;;;;;;15.38;8.95;;;17.50;99.90;;;;;;4991624;28;20038;-80
2022/04/18 12:33:48;;;;;;;11.88;8.60;;;17.20;99.90;;;;;;5000371;28;20502;-79
2022/04/18 12:36:36;;;;;;;9.80;8.30;;;17.20;99.90;;;;;;5001776;28;20398;-79
2022/04/18 12:39:04;;;;;;;13.63;7.60;;;17.10;99.90;;;;;;4984322;28;20093;-82
2022/04/18 12:41:33;;;;;;;11.45;8.27;;;17.20;99.90;;;;;;5000509;28;20022;-81
2022/04/18 12:43:59;;;;;;;13.15;8.68;;;17.30;99.90;;;;;;4995082;28;20030;-80
2022/04/18 12:46:29;;;;;;;11.30;7.88;;;17.20;99.90;;;;;;5019890;28;20026;-81
2022/04/18 12:48:55;;;;;;;15.00;9.17;;;17.20;99.90;;;;;;5001299;28;20122;-79
2022/04/18 12:51:42;;;;;;;12.70;8.65;;;17.30;99.90;;;;;;5018787;28;20019;-78
2022/04/18 12:54:24;;;;;;;11.13;8.20;;;17.40;99.90;;;;;;5005076;28;20050;-79
2022/04/18 12:56:51;;;;;;;10.88;8.30;;;17.60;99.90;;;;;;4999731;28;20041;-80
2022/04/18 12:59:28;;;;;;;12.43;7.78;;;17.50;99.90;;;;;;4982480;28;20030;-81
2022/04/18 13:02:08;;;;;;;10.25;7.90;;;17.70;99.90;;;;;;5011712;28;20034;-80
2022/04/18 13:04:34;;;;;;;11.82;7.10;;;18.00;99.90;;;;;;5013823;28;20018;-79
2022/04/18 13:07:03;;;;;;;8.65;7.22;;;18.30;99.90;;;;;;5012398;28;20490;-79